Time;durP1;ratioP1;P1;durP2;ratioP2;P2;SDS_P1;SDS_P2;PMS_P1;PMS_P2;Temp;Humidity;BMP_temperature;BMP_pressure;BME280_temperature;BME280_humidity;BME280_pressure;Samples;Min_cycle;Max_cycle;Signal;HPM_P1;HPM_P2
2022/11/10 00:00:00;;;;;;;4.15;1.20;;;;;;;12.58;42.21;101367.50;4943707;28;20057;-73
2022/11/10 00:02:47;;;;;;;3.00;1.38;;;;;;;12.56;41.79;101365.88;4930852;29;20138;-73
2022/11/10 00:05:36;;;;;;;3.72;1.50;;;;;;;12.56;42.10;101377.72;4936842;29;20192;-73
2022/11/10 00:08:23;;;;;;;4.72;1.10;;;;;;;12.55;41.96;101380.59;4944357;29;20061;-73
2022/11/10 00:11:09;;;;;;;3.25;1.67;;;;;;;12.54;42.08;101384.38;4948586;28;20130;-73
2022/11/10 00:17:01;;;;;;;5.57;1.45;;;;;;;12.53;42.51;101399.09;4944102;28;20066;-73
2022/11/10 00:19:47;;;;;;;5.03;1.30;;;;;;;12.50;42.33;101394.75;4945004;29;20062;-73
2022/11/10 00:22:35;;;;;;;4.47;1.40;;;;;;;12.50;42.16;101395.63;4935403;29;20058;-73
2022/11/10 00:25:21;;;;;;;4.63;1.30;;;;;;;12.49;42.33;101387.50;4943657;29;20077;-73
2022/11/10 00:28:08;;;;;;;4.03;1.42;;;;;;;12.48;42.51;101388.50;4945334;28;20049;-74
2022/11/10 00:30:54;;;;;;;6.15;1.35;;;;;;;12.46;42.41;101385.88;4941253;29;20110;-73
2022/11/10 00:33:43;;;;;;;3.55;1.23;;;;;;;12.48;42.23;101385.75;4943247;28;20073;-73
2022/11/10 00:36:30;;;;;;;5.20;1.42;;;;;;;12.45;42.58;101391.53;4939213;28;20113;-73
2022/11/10 00:39:17;;;;;;;3.90;1.33;;;;;;;12.44;42.25;101393.41;4945566;29;20118;-73
2022/11/10 00:42:03;;;;;;;3.17;1.30;;;;;;;12.44;42.82;101404.41;4948071;28;20197;-73
2022/11/10 00:44:50;;;;;;;4.45;1.35;;;;;;;12.43;42.27;101410.88;4970035;23;20137;-83
2022/11/10 00:47:37;;;;;;;3.05;1.00;;;;;;;12.43;42.18;101416.38;4916120;28;20047;-84
2022/11/10 00:50:25;;;;;;;3.30;1.17;;;;;;;12.43;42.79;101421.00;4925252;29;20075;-81
2022/11/10 00:53:12;;;;;;;5.25;1.60;;;;;;;12.40;42.91;101418.50;4931981;29;20076;-84
2022/11/10 00:55:58;;;;;;;3.22;1.20;;;;;;;12.39;42.64;101425.88;4932091;29;20116;-82
2022/11/10 00:58:46;;;;;;;5.03;1.23;;;;;;;12.39;42.95;101420.38;4932392;29;20063;-84
2022/11/10 01:01:33;;;;;;;7.20;1.45;;;;;;;12.38;43.05;101421.38;4929517;29;20077;-83
2022/11/10 01:04:19;;;;;;;4.43;1.20;;;;;;;12.38;42.88;101420.50;4925153;29;20083;-84
2022/11/10 01:07:08;;;;;;;4.90;1.27;;;;;;;12.39;42.71;101420.38;4928696;29;20059;-81
2022/11/10 01:09:55;;;;;;;2.72;1.25;;;;;;;12.38;42.89;101426.00;4918654;29;20104;-84
2022/11/10 01:12:41;;;;;;;5.00;1.30;;;;;;;12.37;43.09;101429.78;4914046;29;20055;-83
2022/11/10 01:15:28;;;;;;;4.53;1.30;;;;;;;12.37;43.00;101438.00;4919867;29;20145;-84
2022/11/10 01:18:14;;;;;;;3.97;1.40;;;;;;;12.36;43.06;101437.13;4919341;29;20081;-84
2022/11/10 01:21:01;;;;;;;4.65;1.33;;;;;;;12.36;42.86;101445.38;4919687;29;20430;-84
2022/11/10 01:23:50;;;;;;;5.15;1.13;;;;;;;12.36;43.07;101442.63;4918793;29;20131;-84
2022/11/10 01:26:36;;;;;;;4.25;1.30;;;;;;;12.35;43.24;101445.50;4915349;29;20127;-84
2022/11/10 01:29:23;;;;;;;4.55;1.30;;;;;;;12.34;43.13;101450.09;4911661;29;20059;-83
2022/11/10 01:32:09;;;;;;;3.88;1.20;;;;;;;12.33;42.99;101455.72;4918924;29;20107;-85
2022/11/10 01:34:57;;;;;;;3.83;1.40;;;;;;;12.33;43.01;101459.34;4919058;29;20528;-83
2022/11/10 01:37:44;;;;;;;4.00;1.40;;;;;;;12.32;42.96;101459.47;4918603;29;20187;-83
2022/11/10 01:40:32;;;;;;;4.45;1.27;;;;;;;12.33;43.34;101463.97;4916503;29;20055;-84
2022/11/10 01:43:19;;;;;;;4.50;1.40;;;;;;;12.31;43.26;101450.34;4918678;29;20199;-84
2022/11/10 01:46:07;;;;;;;3.35;1.23;;;;;;;12.32;43.33;101451.22;4918331;29;20054;-83
2022/11/10 01:48:59;;;;;;;4.97;1.30;;;;;;;12.32;43.24;101459.47;4920114;29;20104;-82
2022/11/10 01:51:50;;;;;;;5.05;1.25;;;;;;;12.31;43.48;101461.34;4916867;29;20108;-84
2022/11/10 01:54:43;;;;;;;3.92;1.30;;;;;;;12.31;42.97;101469.56;4917056;29;20084;-84
2022/11/10 01:57:31;;;;;;;4.90;1.95;;;;;;;12.30;43.45;101464.22;4920309;29;20115;-84
2022/11/10 02:00:19;;;;;;;3.40;1.17;;;;;;;12.29;43.37;101476.22;4916924;29;20074;-83
2022/11/10 02:03:13;;;;;;;5.20;1.50;;;;;;;12.29;43.64;101485.31;4919059;29;20066;-84
2022/11/10 02:06:00;;;;;;;3.80;1.40;;;;;;;12.25;43.63;101486.56;4919634;29;20495;-83
2022/11/10 02:08:47;;;;;;;5.95;1.77;;;;;;;12.27;43.41;101484.56;4919506;29;20067;-84
2022/11/10 02:11:35;;;;;;;6.22;1.50;;;;;;;12.26;43.19;101490.19;4918086;29;20198;-84
2022/11/10 02:14:23;;;;;;;2.85;1.08;;;;;;;12.26;43.39;101482.81;4914166;29;20055;-85
2022/11/10 02:17:10;;;;;;;5.68;1.58;;;;;;;12.26;43.29;101487.44;4915383;29;20055;-83
2022/11/10 02:19:59;;;;;;;4.65;1.35;;;;;;;12.26;43.31;101490.19;4919122;29;20104;-84
2022/11/10 02:22:47;;;;;;;5.50;1.40;;;;;;;12.24;43.16;101490.31;4914715;29;20526;-84
2022/11/10 02:25:35;;;;;;;4.28;1.52;;;;;;;12.22;43.50;101496.91;4914919;29;20606;-84
2022/11/10 02:28:22;;;;;;;4.40;1.30;;;;;;;12.22;43.66;101496.91;4918062;29;20055;-84
2022/11/10 02:31:09;;;;;;;5.70;1.83;;;;;;;12.21;43.02;101503.44;4916720;29;20538;-83
2022/11/10 02:33:55;;;;;;;6.25;1.50;;;;;;;12.19;43.25;101494.47;4918015;29;20059;-85
2022/11/10 02:36:42;;;;;;;4.30;1.58;;;;;;;12.18;43.32;101501.81;4913118;29;20146;-83
2022/11/10 02:39:29;;;;;;;3.22;1.27;;;;;;;12.20;43.75;101509.94;4916133;29;20523;-84
2022/11/10 02:42:16;;;;;;;3.58;1.40;;;;;;;12.17;43.10;101507.44;4915284;29;20059;-83
2022/11/10 02:45:02;;;;;;;3.58;1.23;;;;;;;12.16;43.48;101511.16;4920281;29;20162;-83
2022/11/10 02:47:49;;;;;;;2.75;1.33;;;;;;;12.16;43.39;101505.69;4914459;29;20051;-85
2022/11/10 02:50:35;;;;;;;4.82;1.33;;;;;;;12.14;43.25;101489.34;4913959;29;20525;-84
2022/11/10 02:53:22;;;;;;;5.22;1.40;;;;;;;12.13;43.23;101504.06;4909840;29;20058;-84
2022/11/10 02:56:12;;;;;;;4.72;1.55;;;;;;;12.13;43.64;101510.41;4916823;29;20426;-83
2022/11/10 02:58:59;;;;;;;4.05;1.30;;;;;;;12.11;43.27;101512.44;4917640;29;20176;-83
2022/11/10 03:01:45;;;;;;;3.97;1.38;;;;;;;12.10;43.80;101512.56;4916268;29;20173;-85
2022/11/10 03:04:31;;;;;;;2.92;1.30;;;;;;;12.09;43.44;101522.66;4918461;29;20513;-85
2022/11/10 03:07:18;;;;;;;4.22;1.10;;;;;;;12.09;43.49;101532.75;4916206;29;20074;-86
2022/11/10 03:10:05;;;;;;;3.78;1.65;;;;;;;12.08;43.76;101537.38;4917675;29;20052;-83
2022/11/10 03:12:55;;;;;;;6.70;1.70;;;;;;;12.10;44.10;101543.63;4908834;29;20051;-86
2022/11/10 03:15:41;;;;;;;3.97;1.13;;;;;;;12.06;43.89;101539.38;4917831;29;20052;-84
2022/11/10 03:18:28;;;;;;;4.55;1.13;;;;;;;12.06;43.79;101546.72;4912064;29;20095;-86
2022/11/10 03:21:14;;;;;;;4.93;1.40;;;;;;;12.06;43.63;101543.97;4916872;29;20066;-85
2022/11/10 03:24:00;;;;;;;3.42;1.25;;;;;;;12.04;43.39;101535.91;4916540;29;20059;-86
2022/11/10 03:26:47;;;;;;;5.75;1.52;;;;;;;12.04;43.70;101540.53;4912615;29;20055;-86
2022/11/10 03:29:34;;;;;;;3.80;1.35;;;;;;;12.04;43.67;101533.16;4916692;29;20046;-86
2022/11/10 03:32:21;;;;;;;4.60;1.65;;;;;;;12.01;44.09;101538.91;4914987;29;20063;-85
2022/11/10 03:35:08;;;;;;;5.50;1.30;;;;;;;12.02;43.78;101548.88;4915683;29;20051;-85
2022/11/10 03:37:55;;;;;;;4.65;1.65;;;;;;;12.01;43.80;101562.72;4913150;29;20054;-86
2022/11/10 03:40:41;;;;;;;3.63;1.40;;;;;;;12.01;44.11;101554.47;4912915;29;20552;-84
2022/11/10 03:43:48;;;;;;;3.33;1.13;;;;;;;11.99;44.08;101550.97;4916934;29;20104;-86
2022/11/10 03:46:36;;;;;;;4.72;1.25;;;;;;;12.00;44.10;101550.00;4915623;29;20513;-84
2022/11/10 03:49:28;;;;;;;3.88;1.45;;;;;;;11.98;43.73;101576.66;4915994;29;20126;-86
2022/11/10 03:52:14;;;;;;;3.17;1.10;;;;;;;11.99;44.08;101576.53;4915624;29;20070;-86
2022/11/10 03:55:00;;;;;;;6.45;1.55;;;;;;;11.99;43.81;101581.16;4915845;29;20054;-84
2022/11/10 03:57:49;;;;;;;3.60;1.13;;;;;;;11.97;43.65;101584.03;4914705;29;20054;-86
2022/11/10 04:00:35;;;;;;;2.95;1.42;;;;;;;11.97;44.24;101595.00;4913358;29;20055;-82
2022/11/10 04:03:24;;;;;;;4.05;1.35;;;;;;;11.98;44.31;101593.13;4917260;29;20475;-84
2022/11/10 04:09:15;;;;;;;7.68;1.52;;;;;;;11.91;43.75;101598.25;4888644;29;20424;-84
2022/11/10 04:18:23;;;;;;;4.65;1.33;;;;;;;11.90;43.74;101606.59;4915933;29;20133;-84
2022/11/10 04:21:11;;;;;;;4.30;1.50;;;;;;;11.90;44.13;101615.69;4913770;29;20067;-84
2022/11/10 04:23:58;;;;;;;4.15;1.33;;;;;;;11.89;44.31;101626.78;4912513;29;20062;-82
2022/11/10 04:26:46;;;;;;;3.50;1.23;;;;;;;11.89;43.98;101638.63;4902263;29;20047;-82
2022/11/10 04:29:32;;;;;;;5.85;1.52;;;;;;;11.88;43.81;101636.03;4911916;29;20526;-83
2022/11/10 04:32:18;;;;;;;5.63;1.50;;;;;;;11.87;43.93;101640.66;4913124;29;20195;-81
2022/11/10 04:35:06;;;;;;;5.55;1.30;;;;;;;11.87;44.03;101640.66;4912895;29;20055;-83
2022/11/10 04:37:54;;;;;;;4.65;1.27;;;;;;;11.88;44.41;101645.16;4912571;29;20547;-82
2022/11/10 04:40:40;;;;;;;4.65;1.30;;;;;;;11.86;44.31;101643.50;4911012;29;20063;-83
2022/11/10 04:43:27;;;;;;;3.88;1.20;;;;;;;11.85;44.05;101650.88;4912662;29;20107;-85
2022/11/10 04:46:22;;;;;;;4.93;1.40;;;;;;;11.88;44.75;101650.63;4912733;29;20135;-81
2022/11/10 04:49:10;;;;;;;6.07;1.50;;;;;;;11.84;44.57;101654.59;4912786;29;20058;-82
2022/11/10 04:51:57;;;;;;;5.28;1.60;;;;;;;11.82;44.02;101661.19;4911936;29;20047;-81
2022/11/10 04:54:45;;;;;;;4.30;1.50;;;;;;;11.82;44.39;101667.56;4913862;29;20055;-82
2022/11/10 04:57:31;;;;;;;4.85;1.50;;;;;;;11.80;44.49;101677.78;4912242;29;20067;-81
2022/11/10 05:00:18;;;;;;;5.32;1.85;;;;;;;11.80;44.32;101680.50;4913042;29;20103;-81
2022/11/10 05:03:06;;;;;;;4.32;1.48;;;;;;;11.80;44.52;101688.75;4911216;29;20047;-86
2022/11/10 05:05:53;;;;;;;4.30;1.20;;;;;;;11.78;44.27;101692.63;4910550;29;20471;-81
2022/11/10 05:08:41;;;;;;;4.35;1.58;;;;;;;11.79;44.65;101688.91;4912986;29;20175;-82
2022/11/10 05:11:29;;;;;;;7.13;2.10;;;;;;;11.78;44.51;101700.84;4908254;29;20544;-82
2022/11/10 05:14:16;;;;;;;4.43;1.90;;;;;;;11.76;44.54;101703.72;4914264;29;20047;-83
2022/11/10 05:17:02;;;;;;;4.10;1.33;;;;;;;11.76;44.19;101705.56;4911631;29;20183;-82
2022/11/10 05:19:48;;;;;;;4.45;1.65;;;;;;;11.75;44.33;101710.19;4908974;29;20087;-82
2022/11/10 05:22:35;;;;;;;4.43;1.50;;;;;;;11.74;44.53;101711.19;4911131;29;20051;-82
2022/11/10 05:25:21;;;;;;;4.70;1.45;;;;;;;11.73;44.61;101723.13;4910778;29;20055;-82
2022/11/10 05:28:13;;;;;;;3.53;1.33;;;;;;;11.75;44.34;101718.41;4912046;29;20044;-84
2022/11/10 05:30:59;;;;;;;6.22;2.00;;;;;;;11.73;44.83;101731.38;4912681;29;20467;-82
2022/11/10 05:33:46;;;;;;;4.38;1.45;;;;;;;11.72;44.38;101727.75;4912546;29;20055;-82
2022/11/10 05:36:33;;;;;;;6.05;1.60;;;;;;;11.73;44.43;101734.09;4913686;29;20055;-83
2022/11/10 05:39:19;;;;;;;3.65;1.50;;;;;;;11.72;44.63;101735.09;4909890;29;20217;-82
2022/11/10 05:42:06;;;;;;;5.78;1.88;;;;;;;11.71;44.79;101734.25;4909995;29;20051;-82
2022/11/10 05:44:54;;;;;;;5.03;1.67;;;;;;;11.74;44.64;101733.13;4920510;29;20055;-84
2022/11/10 05:47:42;;;;;;;4.30;1.33;;;;;;;11.74;44.54;101741.34;4915573;29;20095;-84
2022/11/10 05:50:28;;;;;;;5.20;1.63;;;;;;;11.74;44.53;101735.84;4913807;29;20066;-84
2022/11/10 05:53:15;;;;;;;5.18;1.60;;;;;;;11.73;44.68;101739.59;4913091;29;20065;-84
2022/11/10 05:56:01;;;;;;;4.80;1.40;;;;;;;11.72;45.02;101748.81;4913381;29;20052;-83
2022/11/10 05:58:48;;;;;;;4.53;1.27;;;;;;;11.71;44.79;101747.97;4915745;29;20063;-84
2022/11/10 06:01:36;;;;;;;3.65;1.20;;;;;;;11.73;44.87;101750.56;4907139;29;20055;-82
2022/11/10 06:04:23;;;;;;;5.22;1.42;;;;;;;11.71;44.42;101758.94;4916668;29;20051;-81
2022/11/10 06:07:10;;;;;;;3.65;1.30;;;;;;;11.70;45.02;101762.66;4911104;29;20621;-86
2022/11/10 06:09:57;;;;;;;7.20;1.80;;;;;;;11.68;44.68;101756.41;4913863;29;20051;-83
2022/11/10 06:12:44;;;;;;;4.70;1.30;;;;;;;11.68;44.66;101761.91;4911281;29;20047;-82
2022/11/10 06:15:32;;;;;;;5.45;1.58;;;;;;;11.68;44.71;101766.50;4918401;29;20055;-84
2022/11/10 06:18:20;;;;;;;6.13;1.85;;;;;;;11.69;44.90;101773.75;4918371;29;20052;-82
2022/11/10 06:21:10;;;;;;;7.18;1.55;;;;;;;11.66;45.04;101765.75;4919938;29;20079;-83
2022/11/10 06:23:56;;;;;;;5.72;2.08;;;;;;;11.65;44.82;101774.97;4919341;29;20180;-84
2022/11/10 06:26:43;;;;;;;4.90;1.95;;;;;;;11.64;45.02;101784.19;4910686;29;20055;-83
2022/11/10 06:29:29;;;;;;;3.83;1.50;;;;;;;11.62;45.08;101776.09;4916700;29;20071;-83
2022/11/10 06:32:16;;;;;;;5.15;1.45;;;;;;;11.62;44.80;101784.31;4916693;29;20415;-84
2022/11/10 06:35:04;;;;;;;6.60;1.33;;;;;;;11.63;44.51;101796.16;4908787;29;20161;-83
2022/11/10 06:37:59;;;;;;;6.25;1.90;;;;;;;11.64;44.76;101797.88;4913670;29;20242;-85
2022/11/10 06:40:45;;;;;;;5.32;1.60;;;;;;;11.58;44.50;101807.44;4914794;29;20088;-83
2022/11/10 06:43:32;;;;;;;6.28;1.50;;;;;;;11.59;44.69;101808.31;4914425;29;20127;-83
2022/11/10 06:46:19;;;;;;;5.40;1.65;;;;;;;11.58;45.03;101815.66;4933904;23;20050;-72
2022/11/10 06:49:05;;;;;;;6.95;1.63;;;;;;;11.58;44.73;101809.31;4911172;29;20051;-72
2022/11/10 06:51:53;;;;;;;6.00;1.70;;;;;;;11.59;44.77;101817.41;4906639;29;20060;-73
2022/11/10 06:54:39;;;;;;;5.07;1.83;;;;;;;11.57;44.80;101829.47;4910741;29;20055;-75
2022/11/10 06:57:25;;;;;;;5.88;1.70;;;;;;;11.56;45.18;101825.00;4911683;29;20274;-74
2022/11/10 07:00:13;;;;;;;4.18;1.65;;;;;;;11.57;45.16;101829.47;4903816;29;20495;-73
2022/11/10 07:03:02;;;;;;;6.75;2.05;;;;;;;11.56;44.78;101849.66;4910155;29;20183;-73
2022/11/10 07:05:48;;;;;;;5.20;1.60;;;;;;;11.54;45.04;101849.81;4908049;29;20143;-73
2022/11/10 07:08:36;;;;;;;5.13;1.95;;;;;;;11.53;45.39;101855.41;4911045;29;20047;-73
2022/11/10 07:11:23;;;;;;;8.00;2.50;;;;;;;11.51;44.81;101862.88;4911909;29;20047;-72
2022/11/10 07:14:09;;;;;;;5.70;1.95;;;;;;;11.50;44.73;101859.25;4909668;29;20067;-74
2022/11/10 07:16:55;;;;;;;6.50;1.80;;;;;;;11.50;45.25;101869.31;4910964;29;20059;-73
2022/11/10 07:19:42;;;;;;;7.93;2.25;;;;;;;11.49;45.02;101871.19;4904091;29;20484;-73
2022/11/10 07:22:28;;;;;;;5.32;1.75;;;;;;;11.49;45.25;101882.16;4910358;29;20051;-73
2022/11/10 07:25:17;;;;;;;4.82;1.60;;;;;;;11.51;44.98;101887.53;4909273;29;20067;-72
2022/11/10 07:28:05;;;;;;;5.47;2.05;;;;;;;11.49;45.12;101901.34;4901419;29;20059;-73
2022/11/10 07:30:51;;;;;;;5.05;1.65;;;;;;;11.49;45.05;101895.00;4908374;29;20412;-73
2022/11/10 07:33:38;;;;;;;6.63;1.60;;;;;;;11.49;45.26;101905.94;4910601;29;20084;-74
2022/11/10 07:36:27;;;;;;;4.85;1.70;;;;;;;11.50;45.42;101907.72;4910168;29;20572;-74
2022/11/10 07:39:14;;;;;;;4.20;1.90;;;;;;;11.51;45.28;101903.97;4898288;29;20525;-73
2022/11/10 07:42:02;;;;;;;6.10;2.00;;;;;;;11.53;45.29;101910.22;4908694;29;20108;-73
2022/11/10 07:44:48;;;;;;;5.75;1.77;;;;;;;11.52;45.13;101916.69;4903988;29;20059;-72
2022/11/10 07:47:34;;;;;;;5.55;2.13;;;;;;;11.52;45.39;101912.09;4907226;29;20047;-72
2022/11/10 07:50:21;;;;;;;4.53;1.83;;;;;;;11.54;45.34;101912.00;4905778;29;20187;-74
2022/11/10 07:53:09;;;;;;;6.57;1.83;;;;;;;11.55;45.28;101917.38;4908619;29;20059;-71
2022/11/10 07:55:58;;;;;;;4.38;1.80;;;;;;;11.56;45.20;101918.22;4907736;29;20528;-72
2022/11/10 07:58:46;;;;;;;5.32;1.70;;;;;;;11.57;45.66;101929.06;4903575;29;20405;-76
2022/11/10 08:01:33;;;;;;;6.28;1.85;;;;;;;11.57;45.26;101931.81;4905240;29;20161;-74
2022/11/10 08:04:20;;;;;;;5.70;1.92;;;;;;;11.58;45.91;101943.66;4908136;29;20528;-72
2022/11/10 08:07:06;;;;;;;4.72;1.92;;;;;;;11.59;45.77;101956.38;4907643;29;20059;-73
2022/11/10 08:09:53;;;;;;;5.80;1.80;;;;;;;11.61;45.97;101959.91;4910641;29;20054;-73
2022/11/10 08:12:39;;;;;;;6.78;1.95;;;;;;;11.62;45.44;101951.59;4910665;29;20157;-73
2022/11/10 08:15:28;;;;;;;7.53;2.20;;;;;;;11.66;46.01;101960.44;4908629;29;20580;-72
2022/11/10 08:18:17;;;;;;;2.42;1.40;;;;;;;11.68;45.92;101964.81;4909162;29;20123;-72
2022/11/10 08:21:05;;;;;;;4.70;1.42;;;;;;;11.70;45.96;101964.72;4911786;29;20055;-71
2022/11/10 08:23:51;;;;;;;6.18;1.58;;;;;;;11.72;45.64;101970.94;4910770;29;20572;-72
2022/11/10 08:26:38;;;;;;;3.58;1.70;;;;;;;11.75;46.09;101970.72;4910286;29;20059;-72
2022/11/10 08:29:24;;;;;;;5.32;1.65;;;;;;;11.78;46.26;101966.88;4904889;29;20346;-72
2022/11/10 08:32:12;;;;;;;4.97;1.63;;;;;;;11.84;45.98;101972.78;4910010;29;20071;-72
2022/11/10 08:34:58;;;;;;;4.35;1.70;;;;;;;11.87;46.36;101986.28;4903706;29;20091;-71
2022/11/10 08:37:44;;;;;;;7.75;2.03;;;;;;;11.91;45.93;101982.28;4906709;29;20127;-71
2022/11/10 08:40:31;;;;;;;4.82;1.83;;;;;;;11.98;46.10;101990.94;4908226;29;20123;-72
2022/11/10 08:43:18;;;;;;;2.63;1.25;;;;;;;12.04;46.44;101990.50;4908069;29;20059;-72
2022/11/10 08:46:05;;;;;;;3.42;1.30;;;;;;;12.10;46.59;101993.63;4907086;29;20169;-71
2022/11/10 08:48:53;;;;;;;4.20;1.70;;;;;;;12.18;46.71;101998.53;4907469;29;20130;-73
2022/11/10 08:51:40;;;;;;;3.47;1.60;;;;;;;12.23;46.07;102000.91;4908996;29;20055;-75
2022/11/10 08:54:26;;;;;;;10.00;2.10;;;;;;;12.31;46.24;102010.31;4903157;29;20107;-75
2022/11/10 08:57:12;;;;;;;4.72;1.60;;;;;;;12.39;46.76;102015.22;4907243;29;20063;-75
2022/11/10 08:59:58;;;;;;;4.45;1.42;;;;;;;12.46;46.77;102011.88;4903590;29;20055;-74
2022/11/10 09:02:44;;;;;;;6.47;1.45;;;;;;;12.54;46.57;102018.66;4908549;29;20071;-75
2022/11/10 09:05:33;;;;;;;5.47;1.60;;;;;;;12.65;46.32;102021.47;4908490;29;20560;-75
2022/11/10 09:08:20;;;;;;;7.53;2.00;;;;;;;12.70;46.62;102028.38;4894463;29;20486;-74
2022/11/10 09:11:06;;;;;;;5.32;1.80;;;;;;;12.79;46.57;102024.00;4909590;29;20125;-74
2022/11/10 09:13:52;;;;;;;5.47;1.40;;;;;;;12.87;46.23;102024.28;4910233;29;20059;-76
2022/11/10 09:16:39;;;;;;;5.78;1.73;;;;;;;12.96;46.62;102023.53;4908153;29;20125;-73
2022/11/10 09:19:25;;;;;;;4.88;1.67;;;;;;;13.06;46.44;102020.94;4908867;29;20055;-73
2022/11/10 09:22:13;;;;;;;7.30;1.70;;;;;;;13.17;46.39;102023.72;4908077;29;20538;-72
2022/11/10 09:24:59;;;;;;;5.78;2.08;;;;;;;13.24;45.92;102027.72;4907770;29;20216;-73
2022/11/10 09:27:45;;;;;;;5.22;1.60;;;;;;;13.32;46.10;102024.34;4897056;29;20059;-73
2022/11/10 09:30:32;;;;;;;6.75;1.80;;;;;;;13.41;46.26;102046.47;4908377;29;20051;-72
2022/11/10 09:33:19;;;;;;;5.53;1.70;;;;;;;13.48;46.07;102031.22;4906092;29;20192;-72
2022/11/10 09:36:06;;;;;;;4.85;1.35;;;;;;;13.58;45.56;102028.63;4907135;29;20428;-72
2022/11/10 09:38:53;;;;;;;5.43;1.83;;;;;;;13.66;46.04;102031.63;4906218;29;20100;-72
2022/11/10 09:41:42;;;;;;;5.85;2.00;;;;;;;13.74;46.11;102040.13;4908900;29;20123;-73
2022/11/10 09:44:34;;;;;;;3.78;1.50;;;;;;;13.82;45.59;102045.00;4908204;29;20199;-73
2022/11/10 09:47:26;;;;;;;4.83;1.50;;;;;;;13.87;45.72;102053.75;4907650;29;20508;-71
2022/11/10 09:50:44;;;;;;;5.60;1.60;;;;;;;13.96;45.10;102048.34;4910066;29;20295;-72
2022/11/10 09:53:58;;;;;;;7.70;2.03;;;;;;;14.03;45.34;102065.22;4909855;29;20421;-68
2022/11/10 09:56:45;;;;;;;4.15;1.60;;;;;;;14.09;45.44;102061.09;4909710;29;20400;-70
2022/11/10 09:59:33;;;;;;;5.80;1.80;;;;;;;14.16;45.42;102071.47;4906654;29;20087;-69
2022/11/10 10:02:28;;;;;;;4.35;1.58;;;;;;;14.23;44.36;102055.31;4907288;29;20090;-72
2022/11/10 10:05:50;;;;;;;4.22;1.60;;;;;;;14.28;44.23;102061.28;4907682;29;20063;-72
2022/11/10 10:08:49;;;;;;;5.70;1.60;;;;;;;14.33;44.80;102062.66;4917963;29;20043;-73
2022/11/10 10:11:56;;;;;;;4.88;1.60;;;;;;;14.38;43.97;102070.53;4912320;29;20413;-73
2022/11/10 10:14:59;;;;;;;7.15;1.45;;;;;;;14.44;43.84;102070.00;4907208;29;20101;-72
2022/11/10 10:17:55;;;;;;;6.85;1.73;;;;;;;14.46;44.32;102072.63;4907625;29;20058;-72
2022/11/10 10:20:52;;;;;;;12.35;3.15;;;;;;;14.52;43.81;102077.69;4912196;29;20055;-68
2022/11/10 10:23:45;;;;;;;6.22;1.88;;;;;;;14.54;43.70;102068.25;4912487;29;20058;-69
2022/11/10 10:26:56;;;;;;;4.18;1.52;;;;;;;14.55;43.98;102074.63;4911184;29;20131;-71
2022/11/10 10:29:46;;;;;;;7.90;1.90;;;;;;;14.60;44.44;102078.75;4906290;29;20602;-69
2022/11/10 10:32:33;;;;;;;5.47;1.42;;;;;;;14.62;44.39;102070.34;4908641;29;20550;-72
2022/11/10 10:35:19;;;;;;;6.20;1.92;;;;;;;14.66;44.64;102074.59;4910454;29;20164;-72
2022/11/10 10:38:16;;;;;;;5.53;1.40;;;;;;;14.72;43.89;102068.56;4906431;29;20051;-72
2022/11/10 10:41:13;;;;;;;8.43;2.25;;;;;;;14.75;43.66;102060.03;4908074;29;20055;-73
2022/11/10 10:44:12;;;;;;;6.88;1.63;;;;;;;14.80;43.70;102073.41;4901996;29;20051;-71
2022/11/10 10:47:01;;;;;;;4.30;1.33;;;;;;;14.82;43.83;102071.41;4911748;29;20059;-73
2022/11/10 10:49:48;;;;;;;6.00;1.85;;;;;;;14.86;44.50;102071.00;4907342;29;20074;-71
2022/11/10 10:52:34;;;;;;;5.53;1.50;;;;;;;14.92;44.04;102067.72;4907384;29;20052;-72
2022/11/10 10:55:20;;;;;;;5.32;1.83;;;;;;;14.99;44.33;102063.41;4904028;29;20104;-72
2022/11/10 10:58:26;;;;;;;4.90;1.63;;;;;;;15.07;43.81;102060.88;4905613;29;20648;-73
2022/11/10 11:01:27;;;;;;;4.70;1.77;;;;;;;15.19;42.95;102069.91;4910217;29;20087;-74
2022/11/10 11:04:28;;;;;;;4.20;1.77;;;;;;;15.28;43.21;102060.84;4907856;29;20051;-73
2022/11/10 11:07:21;;;;;;;5.15;1.50;;;;;;;15.37;42.83;102071.09;4906209;29;20131;-73
2022/11/10 11:10:19;;;;;;;4.75;1.60;;;;;;;15.45;42.53;102065.75;4911831;29;20063;-72
2022/11/10 11:13:16;;;;;;;5.47;1.35;;;;;;;15.55;41.80;102057.53;4899213;29;20059;-73
2022/11/10 11:16:06;;;;;;;4.53;1.30;;;;;;;15.61;42.84;102073.53;4913102;29;20059;-72
2022/11/10 11:18:53;;;;;;;4.18;1.48;;;;;;;15.71;42.79;102087.38;4904919;29;20127;-73
2022/11/10 11:21:51;;;;;;;4.38;1.33;;;;;;;15.80;41.75;102095.72;4900733;29;20063;-73
2022/11/10 11:24:42;;;;;;;7.70;1.70;;;;;;;15.87;41.94;102107.94;4910809;29;20075;-73
2022/11/10 11:27:37;;;;;;;3.35;1.20;;;;;;;15.96;41.36;102105.38;4910653;29;20437;-73
2022/11/10 11:30:27;;;;;;;4.93;1.55;;;;;;;16.02;41.40;102102.03;4910528;29;20544;-73
2022/11/10 11:33:25;;;;;;;5.38;1.35;;;;;;;16.10;41.25;102103.09;4911812;29;20118;-73
2022/11/10 11:36:25;;;;;;;3.83;1.20;;;;;;;16.16;40.39;102107.19;4910776;29;20636;-73
2022/11/10 11:39:30;;;;;;;5.15;1.30;;;;;;;16.22;40.10;102106.66;4906333;29;20098;-73
2022/11/10 11:42:28;;;;;;;4.97;1.20;;;;;;;16.27;40.06;102116.25;4911339;29;20059;-73
2022/11/10 11:45:19;;;;;;;4.22;1.20;;;;;;;16.32;40.53;102121.38;4911762;29;20209;-73
2022/11/10 11:48:32;;;;;;;3.28;1.10;;;;;;;16.38;39.62;102123.56;4904048;29;20063;-73
2022/11/10 11:51:26;;;;;;;2.85;1.10;;;;;;;16.40;39.94;102124.31;4900821;29;20059;-73
2022/11/10 11:54:26;;;;;;;4.60;1.25;;;;;;;16.48;39.27;102126.34;4911649;29;20055;-73
2022/11/10 11:57:24;;;;;;;6.07;1.08;;;;;;;16.51;39.06;102132.44;4906317;29;20148;-74
2022/11/10 12:00:14;;;;;;;6.22;1.13;;;;;;;16.54;39.29;102151.53;4913249;29;20055;-74
2022/11/10 12:03:32;;;;;;;2.70;0.90;;;;;;;16.55;38.51;102139.44;4912574;29;20572;-73
2022/11/10 12:06:40;;;;;;;4.90;1.00;;;;;;;16.59;38.36;102138.13;4910333;29;20392;-72
2022/11/10 12:09:39;;;;;;;3.97;1.00;;;;;;;16.62;38.86;102132.34;4911065;29;20070;-74
2022/11/10 12:13:00;;;;;;;3.85;1.10;;;;;;;16.63;38.50;102145.13;4905220;29;20047;-74
2022/11/10 12:15:53;;;;;;;2.13;0.90;;;;;;;16.67;38.39;102139.31;4912954;29;20180;-74
2022/11/10 12:18:45;;;;;;;;;;;;;;;16.39;39.88;102138.25;4897277;29;20430;-74
2022/11/10 12:21:46;;;;;;;3.00;1.23;;;;;;;16.68;38.15;102139.16;4909696;29;19982;-73
2022/11/10 12:25:04;;;;;;;2.35;0.77;;;;;;;16.71;37.95;102126.97;4912969;29;20058;-73
2022/11/10 12:27:56;;;;;;;2.78;1.40;;;;;;;16.75;37.80;102128.41;4894938;29;20071;-73
2022/11/10 12:30:43;;;;;;;2.45;0.90;;;;;;;16.75;38.08;102132.03;4901227;29;20188;-73
2022/11/10 12:33:36;;;;;;;3.92;1.00;;;;;;;16.80;37.48;102142.69;4904795;29;20063;-73
2022/11/10 12:36:24;;;;;;;2.08;0.95;;;;;;;16.77;37.86;102137.44;4905623;29;20087;-73
2022/11/10 12:39:18;;;;;;;3.50;0.82;;;;;;;16.80;37.29;102139.91;4911305;29;20069;-73
2022/11/10 12:42:10;;;;;;;3.90;0.80;;;;;;;16.79;37.63;102147.34;4907032;29;20063;-73
2022/11/10 12:45:00;;;;;;;2.22;0.90;;;;;;;16.81;37.42;102141.69;4908182;29;20060;-73
2022/11/10 12:47:48;;;;;;;3.10;0.80;;;;;;;16.80;37.52;102138.03;4899320;29;20067;-73
2022/11/10 12:50:41;;;;;;;2.30;0.70;;;;;;;16.81;37.31;102137.03;4904900;29;20054;-72
2022/11/10 12:53:31;;;;;;;4.07;1.10;;;;;;;16.80;37.46;102146.31;4900509;29;20661;-73
2022/11/10 12:56:25;;;;;;;6.10;1.08;;;;;;;16.83;36.52;102150.66;4910137;29;20059;-73
2022/11/10 12:59:27;;;;;;;2.75;0.82;;;;;;;16.82;36.26;102160.00;4901293;29;20066;-73
2022/11/10 13:02:24;;;;;;;2.47;0.90;;;;;;;16.81;36.41;102163.78;4914455;29;20182;-73
2022/11/10 13:05:34;;;;;;;3.55;1.17;;;;;;;16.75;36.38;102159.69;4894816;29;20079;-73
2022/11/10 13:08:29;;;;;;;2.85;1.15;;;;;;;16.75;35.96;102164.34;4897718;29;20417;-73
2022/11/10 13:11:30;;;;;;;2.60;0.70;;;;;;;16.73;36.09;102171.94;4901614;29;20051;-72
2022/11/10 13:14:23;;;;;;;2.55;1.20;;;;;;;16.70;36.51;102169.44;4899789;29;20418;-73
2022/11/10 13:17:11;;;;;;;2.58;0.77;;;;;;;16.64;36.69;102170.91;4907796;29;20573;-73
2022/11/10 13:19:59;;;;;;;2.97;1.00;;;;;;;16.62;36.54;102168.25;4898565;29;20063;-72